sensor_id;sensor_type;location;lat;lon;timestamp;P1;durP1;ratioP1;P2;durP2;ratioP2
34565;SDS011;20803;42.676;26.348;2023-08-12T00:01:17;3.77;;;2.60;;
34565;SDS011;20803;42.676;26.348;2023-08-12T00:03:45;3.57;;;2.90;;
34565;SDS011;20803;42.676;26.348;2023-08-12T00:06:10;4.30;;;2.90;;
34565;SDS011;20803;42.676;26.348;2023-08-12T00:08:36;3.70;;;2.63;;
34565;SDS011;20803;42.676;26.348;2023-08-12T00:11:01;3.93;;;2.60;;
34565;SDS011;20803;42.676;26.348;2023-08-12T00:13:26;2.93;;;2.63;;
34565;SDS011;20803;42.676;26.348;2023-08-12T00:15:52;3.23;;;2.93;;
34565;SDS011;20803;42.676;26.348;2023-08-12T00:18:17;4.23;;;2.87;;
34565;SDS011;20803;42.676;26.348;2023-08-12T00:20:43;4.47;;;3.10;;
34565;SDS011;20803;42.676;26.348;2023-08-12T00:23:08;2.87;;;2.67;;
34565;SDS011;20803;42.676;26.348;2023-08-12T00:25:34;4.43;;;2.90;;
34565;SDS011;20803;42.676;26.348;2023-08-12T00:27:59;4.17;;;3.00;;
34565;SDS011;20803;42.676;26.348;2023-08-12T00:30:25;4.33;;;3.20;;
34565;SDS011;20803;42.676;26.348;2023-08-12T00:32:50;3.13;;;2.83;;
34565;SDS011;20803;42.676;26.348;2023-08-12T00:35:16;3.80;;;3.07;;
34565;SDS011;20803;42.676;26.348;2023-08-12T00:37:42;5.37;;;3.63;;
34565;SDS011;20803;42.676;26.348;2023-08-12T00:40:07;4.83;;;3.33;;
34565;SDS011;20803;42.676;26.348;2023-08-12T00:42:33;4.53;;;3.27;;
34565;SDS011;20803;42.676;26.348;2023-08-12T00:44:59;4.50;;;3.70;;
34565;SDS011;20803;42.676;26.348;2023-08-12T00:47:24;5.37;;;3.53;;
34565;SDS011;20803;42.676;26.348;2023-08-12T00:49:50;4.53;;;3.33;;
34565;SDS011;20803;42.676;26.348;2023-08-12T00:52:16;3.97;;;3.57;;
34565;SDS011;20803;42.676;26.348;2023-08-12T00:54:43;3.80;;;3.40;;
34565;SDS011;20803;42.676;26.348;2023-08-12T00:57:08;5.43;;;3.43;;
34565;SDS011;20803;42.676;26.348;2023-08-12T00:59:37;4.43;;;3.50;;
34565;SDS011;20803;42.676;26.348;2023-08-12T01:02:04;3.53;;;3.13;;
34565;SDS011;20803;42.676;26.348;2023-08-12T01:04:30;4.00;;;3.27;;
34565;SDS011;20803;42.676;26.348;2023-08-12T01:06:55;6.40;;;3.33;;
34565;SDS011;20803;42.676;26.348;2023-08-12T01:09:21;5.13;;;3.70;;
34565;SDS011;20803;42.676;26.348;2023-08-12T01:14:58;4.23;;;3.57;;
34565;SDS011;20803;42.676;26.348;2023-08-12T01:17:46;4.23;;;3.67;;
34565;SDS011;20803;42.676;26.348;2023-08-12T01:20:17;6.13;;;3.50;;
34565;SDS011;20803;42.676;26.348;2023-08-12T01:22:49;3.97;;;3.50;;
34565;SDS011;20803;42.676;26.348;2023-08-12T01:25:23;5.77;;;3.63;;
34565;SDS011;20803;42.676;26.348;2023-08-12T01:27:49;3.90;;;3.13;;
34565;SDS011;20803;42.676;26.348;2023-08-12T01:30:15;3.77;;;3.47;;
34565;SDS011;20803;42.676;26.348;2023-08-12T01:32:56;4.90;;;3.47;;
34565;SDS011;20803;42.676;26.348;2023-08-12T01:35:32;3.87;;;3.47;;
34565;SDS011;20803;42.676;26.348;2023-08-12T01:38:12;4.33;;;3.33;;
34565;SDS011;20803;42.676;26.348;2023-08-12T01:40:38;5.50;;;3.47;;
34565;SDS011;20803;42.676;26.348;2023-08-12T01:43:05;4.27;;;3.40;;
34565;SDS011;20803;42.676;26.348;2023-08-12T01:45:33;4.43;;;3.40;;
34565;SDS011;20803;42.676;26.348;2023-08-12T01:47:58;6.67;;;4.10;;
34565;SDS011;20803;42.676;26.348;2023-08-12T01:50:24;4.00;;;3.63;;
34565;SDS011;20803;42.676;26.348;2023-08-12T01:52:50;7.20;;;3.70;;
34565;SDS011;20803;42.676;26.348;2023-08-12T01:55:16;3.87;;;3.43;;
34565;SDS011;20803;42.676;26.348;2023-08-12T01:57:41;4.00;;;3.60;;
34565;SDS011;20803;42.676;26.348;2023-08-12T02:00:07;4.93;;;3.43;;
34565;SDS011;20803;42.676;26.348;2023-08-12T02:02:33;4.90;;;3.70;;
34565;SDS011;20803;42.676;26.348;2023-08-12T02:04:58;4.87;;;3.30;;
34565;SDS011;20803;42.676;26.348;2023-08-12T02:07:24;5.70;;;3.80;;
34565;SDS011;20803;42.676;26.348;2023-08-12T02:09:49;5.87;;;3.80;;
34565;SDS011;20803;42.676;26.348;2023-08-12T02:12:14;5.83;;;3.20;;
34565;SDS011;20803;42.676;26.348;2023-08-12T02:14:40;5.57;;;3.10;;
34565;SDS011;20803;42.676;26.348;2023-08-12T02:17:05;4.23;;;3.30;;
34565;SDS011;20803;42.676;26.348;2023-08-12T02:19:33;4.60;;;2.93;;
34565;SDS011;20803;42.676;26.348;2023-08-12T02:21:59;4.23;;;3.20;;
34565;SDS011;20803;42.676;26.348;2023-08-12T02:24:26;3.63;;;3.27;;
34565;SDS011;20803;42.676;26.348;2023-08-12T02:26:51;4.47;;;3.37;;
34565;SDS011;20803;42.676;26.348;2023-08-12T02:29:17;5.33;;;3.23;;
34565;SDS011;20803;42.676;26.348;2023-08-12T02:31:42;5.37;;;3.10;;
34565;SDS011;20803;42.676;26.348;2023-08-12T02:34:08;3.83;;;3.30;;
34565;SDS011;20803;42.676;26.348;2023-08-12T02:36:33;3.67;;;3.10;;
34565;SDS011;20803;42.676;26.348;2023-08-12T02:38:58;3.67;;;3.07;;
34565;SDS011;20803;42.676;26.348;2023-08-12T02:41:24;3.67;;;3.30;;
34565;SDS011;20803;42.676;26.348;2023-08-12T02:43:49;5.17;;;2.90;;
34565;SDS011;20803;42.676;26.348;2023-08-12T02:46:15;4.33;;;2.90;;
34565;SDS011;20803;42.676;26.348;2023-08-12T02:48:41;3.60;;;3.07;;
34565;SDS011;20803;42.676;26.348;2023-08-12T02:51:06;3.53;;;3.10;;
34565;SDS011;20803;42.676;26.348;2023-08-12T02:53:32;4.27;;;3.00;;
34565;SDS011;20803;42.676;26.348;2023-08-12T02:55:57;4.80;;;3.37;;
34565;SDS011;20803;42.676;26.348;2023-08-12T02:58:23;3.37;;;3.03;;
34565;SDS011;20803;42.676;26.348;2023-08-12T03:00:48;5.97;;;3.30;;
34565;SDS011;20803;42.676;26.348;2023-08-12T03:03:13;5.07;;;3.50;;
34565;SDS011;20803;42.676;26.348;2023-08-12T03:05:39;3.63;;;3.20;;
34565;SDS011;20803;42.676;26.348;2023-08-12T03:08:05;6.10;;;3.70;;
34565;SDS011;20803;42.676;26.348;2023-08-12T03:10:31;4.53;;;3.20;;
34565;SDS011;20803;42.676;26.348;2023-08-12T03:12:58;4.43;;;3.53;;
34565;SDS011;20803;42.676;26.348;2023-08-12T03:15:24;3.30;;;2.90;;
34565;SDS011;20803;42.676;26.348;2023-08-12T03:17:49;5.43;;;3.63;;
34565;SDS011;20803;42.676;26.348;2023-08-12T03:20:15;3.77;;;3.00;;
34565;SDS011;20803;42.676;26.348;2023-08-12T03:22:40;4.27;;;3.03;;
34565;SDS011;20803;42.676;26.348;2023-08-12T03:25:05;3.60;;;2.80;;
34565;SDS011;20803;42.676;26.348;2023-08-12T03:27:34;3.40;;;3.10;;
34565;SDS011;20803;42.676;26.348;2023-08-12T03:29:59;4.37;;;3.37;;
34565;SDS011;20803;42.676;26.348;2023-08-12T03:32:25;4.43;;;2.60;;
34565;SDS011;20803;42.676;26.348;2023-08-12T03:34:51;4.23;;;3.23;;
34565;SDS011;20803;42.676;26.348;2023-08-12T03:37:17;3.40;;;3.10;;
34565;SDS011;20803;42.676;26.348;2023-08-12T03:39:42;3.47;;;3.17;;
34565;SDS011;20803;42.676;26.348;2023-08-12T03:42:08;3.93;;;3.10;;
34565;SDS011;20803;42.676;26.348;2023-08-12T03:44:33;4.57;;;3.30;;
34565;SDS011;20803;42.676;26.348;2023-08-12T03:46:58;2.87;;;2.67;;
34565;SDS011;20803;42.676;26.348;2023-08-12T03:49:24;3.90;;;2.97;;
34565;SDS011;20803;42.676;26.348;2023-08-12T03:51:49;4.97;;;3.00;;
34565;SDS011;20803;42.676;26.348;2023-08-12T03:54:15;4.67;;;3.20;;
34565;SDS011;20803;42.676;26.348;2023-08-12T03:56:40;5.10;;;3.10;;
34565;SDS011;20803;42.676;26.348;2023-08-12T03:59:05;4.90;;;3.27;;
34565;SDS011;20803;42.676;26.348;2023-08-12T04:01:31;4.70;;;3.10;;
34565;SDS011;20803;42.676;26.348;2023-08-12T04:03:56;3.30;;;2.93;;
34565;SDS011;20803;42.676;26.348;2023-08-12T04:06:22;2.93;;;2.63;;
34565;SDS011;20803;42.676;26.348;2023-08-12T04:08:47;3.20;;;2.90;;
34565;SDS011;20803;42.676;26.348;2023-08-12T04:11:12;3.53;;;2.83;;
34565;SDS011;20803;42.676;26.348;2023-08-12T04:13:38;3.27;;;2.80;;
34565;SDS011;20803;42.676;26.348;2023-08-12T04:16:03;4.63;;;3.03;;
34565;SDS011;20803;42.676;26.348;2023-08-12T04:18:29;3.60;;;2.93;;
34565;SDS011;20803;42.676;26.348;2023-08-12T04:20:54;3.80;;;3.10;;
34565;SDS011;20803;42.676;26.348;2023-08-12T04:23:19;3.07;;;2.77;;
34565;SDS011;20803;42.676;26.348;2023-08-12T04:25:48;3.50;;;2.63;;
34565;SDS011;20803;42.676;26.348;2023-08-12T04:28:14;3.93;;;3.13;;
34565;SDS011;20803;42.676;26.348;2023-08-12T04:30:46;4.70;;;3.57;;
34565;SDS011;20803;42.676;26.348;2023-08-12T04:33:12;6.80;;;3.20;;
34565;SDS011;20803;42.676;26.348;2023-08-12T04:35:39;3.23;;;2.90;;
34565;SDS011;20803;42.676;26.348;2023-08-12T04:38:05;4.53;;;2.80;;
34565;SDS011;20803;42.676;26.348;2023-08-12T04:40:31;5.50;;;2.90;;
34565;SDS011;20803;42.676;26.348;2023-08-12T04:42:56;3.70;;;3.00;;
34565;SDS011;20803;42.676;26.348;2023-08-12T04:45:23;6.73;;;3.00;;
34565;SDS011;20803;42.676;26.348;2023-08-12T04:47:48;3.50;;;3.10;;
34565;SDS011;20803;42.676;26.348;2023-08-12T04:50:14;4.53;;;3.00;;
34565;SDS011;20803;42.676;26.348;2023-08-12T04:52:39;2.87;;;2.60;;
34565;SDS011;20803;42.676;26.348;2023-08-12T04:55:05;4.40;;;2.80;;
34565;SDS011;20803;42.676;26.348;2023-08-12T04:57:30;3.83;;;3.00;;
34565;SDS011;20803;42.676;26.348;2023-08-12T04:59:56;3.77;;;2.80;;
34565;SDS011;20803;42.676;26.348;2023-08-12T05:02:21;3.40;;;2.80;;
34565;SDS011;20803;42.676;26.348;2023-08-12T05:04:48;3.57;;;3.00;;
34565;SDS011;20803;42.676;26.348;2023-08-12T05:07:14;3.73;;;3.20;;
34565;SDS011;20803;42.676;26.348;2023-08-12T05:09:40;3.40;;;2.97;;
34565;SDS011;20803;42.676;26.348;2023-08-12T05:12:08;3.30;;;3.00;;
34565;SDS011;20803;42.676;26.348;2023-08-12T05:14:34;6.43;;;3.30;;
34565;SDS011;20803;42.676;26.348;2023-08-12T05:16:59;3.20;;;2.90;;
34565;SDS011;20803;42.676;26.348;2023-08-12T05:19:25;2.87;;;2.57;;
34565;SDS011;20803;42.676;26.348;2023-08-12T05:21:50;3.87;;;2.70;;
34565;SDS011;20803;42.676;26.348;2023-08-12T05:24:16;3.07;;;2.60;;
34565;SDS011;20803;42.676;26.348;2023-08-12T05:26:41;4.63;;;3.20;;
34565;SDS011;20803;42.676;26.348;2023-08-12T05:29:06;6.63;;;3.20;;
34565;SDS011;20803;42.676;26.348;2023-08-12T05:31:32;6.13;;;3.70;;
34565;SDS011;20803;42.676;26.348;2023-08-12T05:33:57;4.47;;;2.87;;
34565;SDS011;20803;42.676;26.348;2023-08-12T05:36:23;3.73;;;2.90;;
34565;SDS011;20803;42.676;26.348;2023-08-12T05:38:48;3.30;;;2.80;;
34565;SDS011;20803;42.676;26.348;2023-08-12T05:41:13;3.37;;;3.07;;
34565;SDS011;20803;42.676;26.348;2023-08-12T05:43:39;3.50;;;3.07;;
34565;SDS011;20803;42.676;26.348;2023-08-12T05:46:04;3.73;;;3.13;;
34565;SDS011;20803;42.676;26.348;2023-08-12T05:48:30;4.00;;;3.17;;
34565;SDS011;20803;42.676;26.348;2023-08-12T05:50:55;3.50;;;3.17;;
34565;SDS011;20803;42.676;26.348;2023-08-12T05:53:21;5.50;;;3.43;;
34565;SDS011;20803;42.676;26.348;2023-08-12T05:55:47;4.70;;;3.10;;
34565;SDS011;20803;42.676;26.348;2023-08-12T05:58:12;4.83;;;3.20;;
34565;SDS011;20803;42.676;26.348;2023-08-12T06:00:38;3.40;;;3.00;;
34565;SDS011;20803;42.676;26.348;2023-08-12T06:03:03;3.57;;;3.20;;
34565;SDS011;20803;42.676;26.348;2023-08-12T06:05:31;3.30;;;3.00;;
34565;SDS011;20803;42.676;26.348;2023-08-12T06:07:56;3.43;;;3.13;;
34565;SDS011;20803;42.676;26.348;2023-08-12T06:10:22;3.70;;;2.70;;
34565;SDS011;20803;42.676;26.348;2023-08-12T06:12:47;4.90;;;2.93;;
34565;SDS011;20803;42.676;26.348;2023-08-12T06:15:12;3.13;;;2.80;;
34565;SDS011;20803;42.676;26.348;2023-08-12T06:17:38;3.10;;;2.80;;
34565;SDS011;20803;42.676;26.348;2023-08-12T06:20:03;3.97;;;3.13;;
34565;SDS011;20803;42.676;26.348;2023-08-12T06:22:29;3.60;;;3.07;;
34565;SDS011;20803;42.676;26.348;2023-08-12T06:24:55;3.37;;;2.90;;
34565;SDS011;20803;42.676;26.348;2023-08-12T06:27:20;4.43;;;3.00;;
34565;SDS011;20803;42.676;26.348;2023-08-12T06:29:46;4.43;;;2.97;;
34565;SDS011;20803;42.676;26.348;2023-08-12T06:32:11;3.77;;;3.47;;
34565;SDS011;20803;42.676;26.348;2023-08-12T06:34:38;6.10;;;3.10;;
34565;SDS011;20803;42.676;26.348;2023-08-12T06:37:03;4.73;;;3.20;;
34565;SDS011;20803;42.676;26.348;2023-08-12T06:39:29;5.73;;;3.10;;
34565;SDS011;20803;42.676;26.348;2023-08-12T06:41:54;3.63;;;2.77;;
34565;SDS011;20803;42.676;26.348;2023-08-12T06:44:20;4.20;;;3.20;;
34565;SDS011;20803;42.676;26.348;2023-08-12T06:46:46;6.37;;;2.90;;
34565;SDS011;20803;42.676;26.348;2023-08-12T06:49:11;5.17;;;2.80;;
34565;SDS011;20803;42.676;26.348;2023-08-12T06:51:37;4.60;;;3.13;;
34565;SDS011;20803;42.676;26.348;2023-08-12T06:54:02;3.30;;;2.90;;
34565;SDS011;20803;42.676;26.348;2023-08-12T06:56:28;3.40;;;3.10;;
34565;SDS011;20803;42.676;26.348;2023-08-12T06:58:53;6.60;;;3.10;;
34565;SDS011;20803;42.676;26.348;2023-08-12T07:01:19;3.60;;;2.90;;
34565;SDS011;20803;42.676;26.348;2023-08-12T07:03:44;4.23;;;3.03;;
34565;SDS011;20803;42.676;26.348;2023-08-12T07:06:10;4.63;;;3.50;;
34565;SDS011;20803;42.676;26.348;2023-08-12T07:08:35;5.30;;;3.10;;
34565;SDS011;20803;42.676;26.348;2023-08-12T07:11:01;6.20;;;3.20;;
34565;SDS011;20803;42.676;26.348;2023-08-12T07:13:26;3.53;;;2.83;;
34565;SDS011;20803;42.676;26.348;2023-08-12T07:15:51;4.43;;;3.13;;
34565;SDS011;20803;42.676;26.348;2023-08-12T07:18:17;3.30;;;3.00;;
34565;SDS011;20803;42.676;26.348;2023-08-12T07:20:42;3.87;;;3.10;;
34565;SDS011;20803;42.676;26.348;2023-08-12T07:23:08;4.73;;;3.13;;
34565;SDS011;20803;42.676;26.348;2023-08-12T07:25:33;4.30;;;2.90;;
34565;SDS011;20803;42.676;26.348;2023-08-12T07:27:59;3.50;;;3.20;;
34565;SDS011;20803;42.676;26.348;2023-08-12T07:30:24;6.37;;;3.70;;
34565;SDS011;20803;42.676;26.348;2023-08-12T07:32:50;4.03;;;2.80;;
34565;SDS011;20803;42.676;26.348;2023-08-12T07:35:15;4.70;;;2.90;;
34565;SDS011;20803;42.676;26.348;2023-08-12T07:37:40;5.87;;;3.43;;
34565;SDS011;20803;42.676;26.348;2023-08-12T07:40:06;4.03;;;3.00;;
34565;SDS011;20803;42.676;26.348;2023-08-12T07:42:33;5.83;;;3.50;;
34565;SDS011;20803;42.676;26.348;2023-08-12T07:44:59;3.00;;;2.60;;
34565;SDS011;20803;42.676;26.348;2023-08-12T07:47:24;3.60;;;2.80;;
34565;SDS011;20803;42.676;26.348;2023-08-12T07:49:49;3.40;;;3.00;;
34565;SDS011;20803;42.676;26.348;2023-08-12T07:52:15;3.80;;;2.60;;
34565;SDS011;20803;42.676;26.348;2023-08-12T07:54:40;3.37;;;2.90;;
34565;SDS011;20803;42.676;26.348;2023-08-12T07:57:06;4.27;;;3.30;;
34565;SDS011;20803;42.676;26.348;2023-08-12T07:59:31;3.73;;;3.27;;
34565;SDS011;20803;42.676;26.348;2023-08-12T08:01:57;5.43;;;3.03;;
34565;SDS011;20803;42.676;26.348;2023-08-12T08:04:22;4.03;;;3.40;;
34565;SDS011;20803;42.676;26.348;2023-08-12T08:06:47;3.30;;;2.97;;
34565;SDS011;20803;42.676;26.348;2023-08-12T08:09:13;4.57;;;3.20;;
34565;SDS011;20803;42.676;26.348;2023-08-12T08:11:38;5.80;;;3.60;;
34565;SDS011;20803;42.676;26.348;2023-08-12T08:14:04;3.33;;;2.80;;
34565;SDS011;20803;42.676;26.348;2023-08-12T08:16:29;4.97;;;3.20;;
34565;SDS011;20803;42.676;26.348;2023-08-12T08:18:54;4.90;;;2.90;;
34565;SDS011;20803;42.676;26.348;2023-08-12T08:21:20;4.63;;;2.90;;
34565;SDS011;20803;42.676;26.348;2023-08-12T08:23:45;3.13;;;2.83;;
34565;SDS011;20803;42.676;26.348;2023-08-12T08:26:11;5.63;;;3.43;;
34565;SDS011;20803;42.676;26.348;2023-08-12T08:28:38;3.30;;;3.00;;
34565;SDS011;20803;42.676;26.348;2023-08-12T08:31:03;3.40;;;3.10;;
34565;SDS011;20803;42.676;26.348;2023-08-12T08:33:29;4.70;;;3.00;;
34565;SDS011;20803;42.676;26.348;2023-08-12T08:35:54;5.20;;;3.10;;
34565;SDS011;20803;42.676;26.348;2023-08-12T08:38:20;4.13;;;3.10;;
34565;SDS011;20803;42.676;26.348;2023-08-12T08:40:45;3.77;;;3.27;;
34565;SDS011;20803;42.676;26.348;2023-08-12T08:43:11;3.87;;;3.37;;
34565;SDS011;20803;42.676;26.348;2023-08-12T08:45:40;3.23;;;2.77;;
34565;SDS011;20803;42.676;26.348;2023-08-12T08:48:09;4.37;;;3.00;;
34565;SDS011;20803;42.676;26.348;2023-08-12T08:50:36;3.73;;;2.97;;
34565;SDS011;20803;42.676;26.348;2023-08-12T08:53:02;4.93;;;3.30;;
34565;SDS011;20803;42.676;26.348;2023-08-12T08:55:31;6.70;;;3.50;;
34565;SDS011;20803;42.676;26.348;2023-08-12T08:57:57;4.53;;;2.90;;
34565;SDS011;20803;42.676;26.348;2023-08-12T09:00:23;3.97;;;2.83;;
34565;SDS011;20803;42.676;26.348;2023-08-12T09:02:49;5.50;;;3.00;;
34565;SDS011;20803;42.676;26.348;2023-08-12T09:05:16;3.33;;;3.03;;
34565;SDS011;20803;42.676;26.348;2023-08-12T09:07:42;3.30;;;3.00;;
34565;SDS011;20803;42.676;26.348;2023-08-12T09:10:11;4.67;;;3.33;;
34565;SDS011;20803;42.676;26.348;2023-08-12T09:12:37;3.50;;;3.20;;
34565;SDS011;20803;42.676;26.348;2023-08-12T09:15:04;3.90;;;3.20;;
34565;SDS011;20803;42.676;26.348;2023-08-12T09:17:31;5.23;;;3.30;;
34565;SDS011;20803;42.676;26.348;2023-08-12T09:19:57;3.30;;;3.00;;
34565;SDS011;20803;42.676;26.348;2023-08-12T09:22:26;4.20;;;3.20;;
34565;SDS011;20803;42.676;26.348;2023-08-12T09:25:01;3.70;;;2.80;;
34565;SDS011;20803;42.676;26.348;2023-08-12T09:27:30;3.70;;;3.40;;
34565;SDS011;20803;42.676;26.348;2023-08-12T09:29:56;3.30;;;3.00;;
34565;SDS011;20803;42.676;26.348;2023-08-12T09:32:22;3.17;;;2.80;;
34565;SDS011;20803;42.676;26.348;2023-08-12T09:34:49;4.10;;;2.97;;
34565;SDS011;20803;42.676;26.348;2023-08-12T09:37:16;5.57;;;3.30;;
34565;SDS011;20803;42.676;26.348;2023-08-12T09:39:43;4.67;;;3.83;;
34565;SDS011;20803;42.676;26.348;2023-08-12T09:42:09;4.20;;;3.60;;
34565;SDS011;20803;42.676;26.348;2023-08-12T09:44:35;3.57;;;3.07;;
34565;SDS011;20803;42.676;26.348;2023-08-12T09:47:04;3.40;;;3.10;;
34565;SDS011;20803;42.676;26.348;2023-08-12T09:49:30;3.50;;;3.20;;
34565;SDS011;20803;42.676;26.348;2023-08-12T09:51:56;4.80;;;3.23;;
34565;SDS011;20803;42.676;26.348;2023-08-12T09:54:22;3.33;;;2.90;;
34565;SDS011;20803;42.676;26.348;2023-08-12T09:56:49;4.27;;;3.20;;
34565;SDS011;20803;42.676;26.348;2023-08-12T09:59:22;5.67;;;3.23;;
34565;SDS011;20803;42.676;26.348;2023-08-12T10:01:49;5.20;;;3.47;;
34565;SDS011;20803;42.676;26.348;2023-08-12T10:04:18;4.20;;;3.10;;
34565;SDS011;20803;42.676;26.348;2023-08-12T10:06:47;4.97;;;2.80;;
34565;SDS011;20803;42.676;26.348;2023-08-12T10:09:17;4.33;;;3.00;;
34565;SDS011;20803;42.676;26.348;2023-08-12T10:11:43;5.43;;;3.00;;
34565;SDS011;20803;42.676;26.348;2023-08-12T10:14:10;3.63;;;3.30;;
34565;SDS011;20803;42.676;26.348;2023-08-12T10:16:37;4.23;;;3.40;;
34565;SDS011;20803;42.676;26.348;2023-08-12T10:19:04;5.77;;;3.00;;
34565;SDS011;20803;42.676;26.348;2023-08-12T10:21:31;4.40;;;3.20;;
34565;SDS011;20803;42.676;26.348;2023-08-12T10:23:59;4.30;;;2.80;;
34565;SDS011;20803;42.676;26.348;2023-08-12T10:26:25;4.93;;;3.23;;
34565;SDS011;20803;42.676;26.348;2023-08-12T10:28:51;3.73;;;3.03;;
34565;SDS011;20803;42.676;26.348;2023-08-12T10:31:17;4.37;;;3.30;;
34565;SDS011;20803;42.676;26.348;2023-08-12T10:33:44;3.70;;;3.07;;
34565;SDS011;20803;42.676;26.348;2023-08-12T10:36:09;7.00;;;2.97;;
34565;SDS011;20803;42.676;26.348;2023-08-12T10:38:35;3.87;;;3.30;;
34565;SDS011;20803;42.676;26.348;2023-08-12T10:41:17;3.70;;;3.00;;
34565;SDS011;20803;42.676;26.348;2023-08-12T10:43:58;4.90;;;3.27;;
34565;SDS011;20803;42.676;26.348;2023-08-12T10:46:33;3.50;;;3.20;;
34565;SDS011;20803;42.676;26.348;2023-08-12T10:54:15;3.93;;;3.37;;
34565;SDS011;20803;42.676;26.348;2023-08-12T11:04:43;4.00;;;2.97;;
34565;SDS011;20803;42.676;26.348;2023-08-12T11:10:04;5.63;;;3.40;;
34565;SDS011;20803;42.676;26.348;2023-08-12T11:12:34;6.33;;;3.13;;
34565;SDS011;20803;42.676;26.348;2023-08-12T11:15:00;7.67;;;3.40;;
34565;SDS011;20803;42.676;26.348;2023-08-12T11:17:33;4.27;;;2.77;;
34565;SDS011;20803;42.676;26.348;2023-08-12T11:20:00;4.00;;;3.50;;
34565;SDS011;20803;42.676;26.348;2023-08-12T11:22:29;4.97;;;3.33;;
34565;SDS011;20803;42.676;26.348;2023-08-12T11:24:55;4.57;;;3.03;;
34565;SDS011;20803;42.676;26.348;2023-08-12T11:27:21;3.73;;;3.00;;
34565;SDS011;20803;42.676;26.348;2023-08-12T11:29:48;3.93;;;3.47;;
34565;SDS011;20803;42.676;26.348;2023-08-12T11:32:15;4.77;;;3.27;;
34565;SDS011;20803;42.676;26.348;2023-08-12T11:34:41;4.13;;;3.60;;
34565;SDS011;20803;42.676;26.348;2023-08-12T11:37:06;4.00;;;3.40;;
34565;SDS011;20803;42.676;26.348;2023-08-12T11:39:32;4.83;;;3.30;;
34565;SDS011;20803;42.676;26.348;2023-08-12T11:41:57;3.57;;;3.13;;
34565;SDS011;20803;42.676;26.348;2023-08-12T11:44:23;4.00;;;3.50;;
34565;SDS011;20803;42.676;26.348;2023-08-12T11:46:49;5.83;;;3.63;;
34565;SDS011;20803;42.676;26.348;2023-08-12T11:49:15;3.77;;;3.43;;
34565;SDS011;20803;42.676;26.348;2023-08-12T11:51:40;4.60;;;4.00;;
34565;SDS011;20803;42.676;26.348;2023-08-12T11:54:09;3.97;;;3.57;;
34565;SDS011;20803;42.676;26.348;2023-08-12T11:56:35;5.70;;;4.10;;
34565;SDS011;20803;42.676;26.348;2023-08-12T11:59:01;6.43;;;3.80;;
34565;SDS011;20803;42.676;26.348;2023-08-12T12:01:26;5.53;;;4.03;;
34565;SDS011;20803;42.676;26.348;2023-08-12T12:03:53;4.07;;;3.30;;
34565;SDS011;20803;42.676;26.348;2023-08-12T12:06:32;4.87;;;3.67;;
34565;SDS011;20803;42.676;26.348;2023-08-12T12:09:04;4.70;;;4.03;;
34565;SDS011;20803;42.676;26.348;2023-08-12T12:11:34;3.90;;;3.40;;
34565;SDS011;20803;42.676;26.348;2023-08-12T12:14:05;4.67;;;3.83;;
34565;SDS011;20803;42.676;26.348;2023-08-12T12:19:17;4.00;;;3.63;;
34565;SDS011;20803;42.676;26.348;2023-08-12T12:21:45;4.23;;;3.87;;
34565;SDS011;20803;42.676;26.348;2023-08-12T12:24:15;4.67;;;4.17;;
34565;SDS011;20803;42.676;26.348;2023-08-12T12:26:41;6.57;;;4.40;;
34565;SDS011;20803;42.676;26.348;2023-08-12T12:29:07;5.80;;;4.00;;
34565;SDS011;20803;42.676;26.348;2023-08-12T12:31:33;4.63;;;3.80;;
34565;SDS011;20803;42.676;26.348;2023-08-12T12:34:00;4.30;;;3.90;;
34565;SDS011;20803;42.676;26.348;2023-08-12T12:36:26;5.70;;;3.87;;
34565;SDS011;20803;42.676;26.348;2023-08-12T12:38:52;4.87;;;4.33;;
34565;SDS011;20803;42.676;26.348;2023-08-12T12:41:17;5.43;;;3.73;;
34565;SDS011;20803;42.676;26.348;2023-08-12T12:43:43;5.97;;;3.87;;
34565;SDS011;20803;42.676;26.348;2023-08-12T12:46:08;4.10;;;3.67;;
34565;SDS011;20803;42.676;26.348;2023-08-12T12:48:34;4.40;;;4.00;;
34565;SDS011;20803;42.676;26.348;2023-08-12T12:51:02;4.33;;;3.63;;
34565;SDS011;20803;42.676;26.348;2023-08-12T12:53:28;4.40;;;4.00;;
34565;SDS011;20803;42.676;26.348;2023-08-12T12:55:53;4.00;;;3.63;;
34565;SDS011;20803;42.676;26.348;2023-08-12T12:58:19;4.57;;;3.73;;
34565;SDS011;20803;42.676;26.348;2023-08-12T13:00:47;4.30;;;3.90;;
34565;SDS011;20803;42.676;26.348;2023-08-12T13:03:12;5.47;;;3.83;;
34565;SDS011;20803;42.676;26.348;2023-08-12T13:05:38;4.43;;;3.80;;
34565;SDS011;20803;42.676;26.348;2023-08-12T13:08:03;4.93;;;3.80;;
34565;SDS011;20803;42.676;26.348;2023-08-12T13:10:29;3.87;;;3.57;;
34565;SDS011;20803;42.676;26.348;2023-08-12T13:12:54;3.60;;;3.27;;
34565;SDS011;20803;42.676;26.348;2023-08-12T13:15:20;4.87;;;3.80;;
34565;SDS011;20803;42.676;26.348;2023-08-12T13:17:45;4.27;;;3.87;;
34565;SDS011;20803;42.676;26.348;2023-08-12T13:20:11;7.40;;;4.20;;
34565;SDS011;20803;42.676;26.348;2023-08-12T13:22:36;4.07;;;3.67;;
34565;SDS011;20803;42.676;26.348;2023-08-12T13:25:02;4.17;;;3.83;;
34565;SDS011;20803;42.676;26.348;2023-08-12T13:27:27;4.07;;;3.60;;
34565;SDS011;20803;42.676;26.348;2023-08-12T13:29:52;3.93;;;3.53;;
34565;SDS011;20803;42.676;26.348;2023-08-12T13:32:18;4.37;;;3.70;;
34565;SDS011;20803;42.676;26.348;2023-08-12T13:34:43;4.20;;;3.80;;
34565;SDS011;20803;42.676;26.348;2023-08-12T13:37:11;4.80;;;3.60;;
34565;SDS011;20803;42.676;26.348;2023-08-12T13:39:36;4.07;;;3.53;;
34565;SDS011;20803;42.676;26.348;2023-08-12T13:42:02;5.03;;;3.60;;
34565;SDS011;20803;42.676;26.348;2023-08-12T13:44:27;8.20;;;3.57;;
34565;SDS011;20803;42.676;26.348;2023-08-12T13:46:53;6.20;;;3.33;;
34565;SDS011;20803;42.676;26.348;2023-08-12T13:49:18;4.60;;;3.60;;
34565;SDS011;20803;42.676;26.348;2023-08-12T13:51:43;4.10;;;3.77;;
34565;SDS011;20803;42.676;26.348;2023-08-12T13:54:09;4.47;;;3.87;;
34565;SDS011;20803;42.676;26.348;2023-08-12T13:56:34;4.57;;;3.70;;
34565;SDS011;20803;42.676;26.348;2023-08-12T13:59:00;3.93;;;3.63;;
34565;SDS011;20803;42.676;26.348;2023-08-12T14:01:25;6.63;;;4.17;;
34565;SDS011;20803;42.676;26.348;2023-08-12T14:03:50;5.20;;;3.80;;
34565;SDS011;20803;42.676;26.348;2023-08-12T14:06:16;4.23;;;3.40;;
34565;SDS011;20803;42.676;26.348;2023-08-12T14:08:41;4.23;;;3.87;;
34565;SDS011;20803;42.676;26.348;2023-08-12T14:11:07;6.13;;;3.57;;
34565;SDS011;20803;42.676;26.348;2023-08-12T14:13:32;7.10;;;4.10;;
34565;SDS011;20803;42.676;26.348;2023-08-12T14:15:57;5.37;;;4.00;;
34565;SDS011;20803;42.676;26.348;2023-08-12T14:18:23;4.93;;;3.77;;
34565;SDS011;20803;42.676;26.348;2023-08-12T14:20:48;4.83;;;4.00;;
34565;SDS011;20803;42.676;26.348;2023-08-12T14:23:14;4.20;;;3.80;;
34565;SDS011;20803;42.676;26.348;2023-08-12T14:25:39;4.10;;;3.80;;
34565;SDS011;20803;42.676;26.348;2023-08-12T14:28:04;4.07;;;3.60;;
34565;SDS011;20803;42.676;26.348;2023-08-12T14:30:30;5.23;;;3.83;;
34565;SDS011;20803;42.676;26.348;2023-08-12T14:32:56;4.10;;;3.70;;
34565;SDS011;20803;42.676;26.348;2023-08-12T14:35:21;4.23;;;3.63;;
34565;SDS011;20803;42.676;26.348;2023-08-12T14:37:47;4.23;;;3.80;;
34565;SDS011;20803;42.676;26.348;2023-08-12T14:40:12;4.83;;;4.33;;
34565;SDS011;20803;42.676;26.348;2023-08-12T14:42:38;4.50;;;3.90;;
34565;SDS011;20803;42.676;26.348;2023-08-12T14:45:03;4.67;;;4.10;;
34565;SDS011;20803;42.676;26.348;2023-08-12T14:47:29;4.90;;;4.20;;
34565;SDS011;20803;42.676;26.348;2023-08-12T14:49:55;4.50;;;4.07;;